createdAt,value
2019-03-27T00:00:07.042Z,1025.44
2019-03-27T00:01:11.243Z,1025.45
2019-03-27T00:02:15.486Z,1025.46
2019-03-27T00:03:19.777Z,1025.44
2019-03-27T00:04:24.146Z,1025.40
2019-03-27T00:05:28.226Z,1025.42
2019-03-27T00:06:32.593Z,1025.42
2019-03-27T00:07:36.951Z,1025.43
2019-03-27T00:08:41.160Z,1025.43
2019-03-27T00:09:45.529Z,1025.40
2019-03-27T00:10:49.801Z,1025.41
2019-03-27T00:11:53.778Z,1025.41
2019-03-27T00:12:58.268Z,1025.44
2019-03-27T00:14:02.502Z,1025.44
2019-03-27T00:15:12.694Z,1025.47
2019-03-27T00:16:11.068Z,1025.50
2019-03-27T00:17:15.342Z,1025.49
2019-03-27T00:18:19.550Z,1025.47
2019-03-27T00:19:23.778Z,1025.47
2019-03-27T00:20:28.166Z,1025.45
2019-03-27T00:21:32.369Z,1025.43
2019-03-27T00:22:36.694Z,1025.43
2019-03-27T00:23:40.942Z,1025.44
2019-03-27T00:24:45.303Z,1025.45
2019-03-27T00:25:49.461Z,1025.44
2019-03-27T00:26:53.726Z,1025.43
2019-03-27T00:27:57.976Z,1025.42
2019-03-27T00:29:02.342Z,1025.43
2019-03-27T00:30:06.577Z,1025.41
2019-03-27T00:31:11.964Z,1025.42
2019-03-27T00:32:15.139Z,1025.43
2019-03-27T00:33:19.338Z,1025.46
2019-03-27T00:34:23.410Z,1025.47
2019-03-27T00:35:28.606Z,1025.50
2019-03-27T00:36:32.439Z,1025.50
2019-03-27T00:37:36.798Z,1025.50
2019-03-27T00:38:41.002Z,1025.51
2019-03-27T00:39:45.228Z,1025.53
2019-03-27T00:40:49.529Z,1025.51
2019-03-27T00:41:53.662Z,1025.52
2019-03-27T00:42:58.054Z,1025.52
2019-03-27T00:44:02.335Z,1025.49
2019-03-27T00:45:06.469Z,1025.47
2019-03-27T00:46:10.757Z,1025.47
2019-03-27T00:47:14.925Z,1025.46
2019-03-27T00:48:19.160Z,1025.44
2019-03-27T00:49:23.311Z,1025.42
2019-03-27T00:50:28.566Z,1025.43
2019-03-27T00:51:32.506Z,1025.44
2019-03-27T00:52:36.678Z,1025.41
2019-03-27T00:53:40.978Z,1025.40
2019-03-27T00:54:45.304Z,1025.39
2019-03-27T00:55:49.496Z,1025.41
2019-03-27T00:56:53.743Z,1025.38
2019-03-27T00:57:57.888Z,1025.39
2019-03-27T00:59:02.095Z,1025.40
2019-03-27T01:00:06.404Z,1025.41
2019-03-27T01:01:10.725Z,1025.40
2019-03-27T01:02:14.895Z,1025.41
2019-03-27T01:03:19.086Z,1025.41
2019-03-27T01:04:23.387Z,1025.37
2019-03-27T01:05:27.618Z,1025.37
2019-03-27T01:06:31.843Z,1025.34
2019-03-27T01:07:36.204Z,1025.36
2019-03-27T01:08:40.520Z,1025.37
2019-03-27T01:09:44.689Z,1025.38
2019-03-27T01:10:48.922Z,1025.39
2019-03-27T01:11:53.198Z,1025.37
2019-03-27T01:12:57.485Z,1025.37
2019-03-27T01:14:01.725Z,1025.36
2019-03-27T01:15:05.880Z,1025.36
2019-03-27T01:16:10.294Z,1025.37
2019-03-27T01:17:14.601Z,1025.38
2019-03-27T01:18:18.771Z,1025.35
2019-03-27T01:19:23.049Z,1025.37
2019-03-27T01:20:27.389Z,1025.38
2019-03-27T01:21:31.447Z,1025.37
2019-03-27T01:22:35.819Z,1025.36
2019-03-27T01:23:40.037Z,1025.33
2019-03-27T01:24:44.115Z,1025.30
2019-03-27T01:25:48.326Z,1025.27
2019-03-27T01:26:52.541Z,1025.24
2019-03-27T01:27:56.698Z,1025.24
2019-03-27T01:29:00.902Z,1025.23
2019-03-27T01:30:05.304Z,1025.19
2019-03-27T01:31:09.415Z,1025.25
2019-03-27T01:32:13.692Z,1025.26
2019-03-27T01:33:17.836Z,1025.30
2019-03-27T01:34:22.100Z,1025.32
2019-03-27T01:35:26.268Z,1025.31
2019-03-27T01:36:30.599Z,1025.30
2019-03-27T01:37:34.859Z,1025.31
2019-03-27T01:38:39.103Z,1025.30
2019-03-27T01:39:43.311Z,1025.30
2019-03-27T01:40:47.610Z,1025.33
2019-03-27T01:41:51.673Z,1025.31
2019-03-27T01:42:59.008Z,1025.32
2019-03-27T01:44:02.438Z,1025.33
2019-03-27T01:45:06.614Z,1025.34
2019-03-27T01:46:10.786Z,1025.34
2019-03-27T01:47:14.964Z,1025.35
2019-03-27T01:48:19.200Z,1025.35
2019-03-27T01:49:23.488Z,1025.37
2019-03-27T01:50:27.629Z,1025.35
2019-03-27T01:51:31.961Z,1025.36
2019-03-27T01:52:36.176Z,1025.39
2019-03-27T01:53:40.350Z,1025.39
2019-03-27T01:54:44.623Z,1025.43
2019-03-27T01:55:48.744Z,1025.43
2019-03-27T01:56:53.070Z,1025.44
2019-03-27T01:57:57.408Z,1025.45
2019-03-27T01:59:01.519Z,1025.41
2019-03-27T02:00:05.811Z,1025.41
2019-03-27T02:01:09.956Z,1025.40
2019-03-27T02:02:14.329Z,1025.40
2019-03-27T02:03:18.460Z,1025.40
2019-03-27T02:04:22.702Z,1025.42
2019-03-27T02:05:26.947Z,1025.43
2019-03-27T02:06:31.211Z,1025.44
2019-03-27T02:07:35.423Z,1025.43
2019-03-27T02:08:39.740Z,1025.42
2019-03-27T02:09:43.922Z,1025.43
2019-03-27T02:10:48.162Z,1025.44
2019-03-27T02:11:52.513Z,1025.44
2019-03-27T02:12:56.774Z,1025.47
2019-03-27T02:14:00.976Z,1025.46
2019-03-27T02:15:05.240Z,1025.47
2019-03-27T02:16:09.410Z,1025.46
2019-03-27T02:17:13.726Z,1025.43
2019-03-27T02:18:18.004Z,1025.40
2019-03-27T02:19:22.201Z,1025.38
2019-03-27T02:20:26.355Z,1025.39
2019-03-27T02:21:30.702Z,1025.38
2019-03-27T02:22:34.913Z,1025.38
2019-03-27T02:23:39.152Z,1025.35
2019-03-27T02:24:43.468Z,1025.37
2019-03-27T02:25:47.553Z,1025.38
2019-03-27T02:26:51.838Z,1025.40
2019-03-27T02:27:56.043Z,1025.38
2019-03-27T02:29:00.205Z,1025.40
2019-03-27T02:30:04.641Z,1025.39
2019-03-27T02:31:08.857Z,1025.39
2019-03-27T02:32:13.220Z,1025.40
2019-03-27T02:33:17.397Z,1025.40
2019-03-27T02:34:21.509Z,1025.40
2019-03-27T02:35:25.851Z,1025.42
2019-03-27T02:36:30.011Z,1025.38
2019-03-27T02:37:34.203Z,1025.40
2019-03-27T02:38:38.514Z,1025.38
2019-03-27T02:39:42.674Z,1025.39
2019-03-27T02:40:47.015Z,1025.39
2019-03-27T02:41:51.217Z,1025.41
2019-03-27T02:42:55.510Z,1025.41
2019-03-27T02:43:59.778Z,1025.41
2019-03-27T02:45:03.974Z,1025.40
2019-03-27T02:46:23.908Z,1025.42
2019-03-27T02:47:12.559Z,1025.39
2019-03-27T02:48:16.865Z,1025.41
2019-03-27T02:49:21.169Z,1025.39
2019-03-27T02:50:25.349Z,1025.40
2019-03-27T02:51:29.539Z,1025.40
2019-03-27T02:52:33.801Z,1025.40
2019-03-27T02:53:37.904Z,1025.40
2019-03-27T02:54:42.233Z,1025.41
2019-03-27T02:55:46.465Z,1025.41
2019-03-27T02:56:50.680Z,1025.43
2019-03-27T02:57:54.966Z,1025.45
2019-03-27T02:58:59.147Z,1025.45
2019-03-27T03:00:03.405Z,1025.47
2019-03-27T03:01:07.666Z,1025.46
2019-03-27T03:02:11.857Z,1025.46
2019-03-27T03:03:16.018Z,1025.47
2019-03-27T03:04:20.327Z,1025.48
2019-03-27T03:05:24.531Z,1025.49
2019-03-27T03:06:28.783Z,1025.53
2019-03-27T03:07:33.055Z,1025.53
2019-03-27T03:08:37.240Z,1025.58
2019-03-27T03:09:41.553Z,1025.60
2019-03-27T03:10:46.067Z,1025.59
2019-03-27T03:11:49.993Z,1025.59
2019-03-27T03:12:54.342Z,1025.59
2019-03-27T03:13:58.567Z,1025.61
2019-03-27T03:15:02.819Z,1025.61
2019-03-27T03:16:07.070Z,1025.59
2019-03-27T03:17:11.144Z,1025.59
2019-03-27T03:18:15.335Z,1025.57
2019-03-27T03:19:19.625Z,1025.58
2019-03-27T03:20:23.857Z,1025.58
2019-03-27T03:21:28.102Z,1025.58
2019-03-27T03:22:32.468Z,1025.56
2019-03-27T03:23:36.586Z,1025.53
2019-03-27T03:24:40.957Z,1025.56
2019-03-27T03:25:45.363Z,1025.58
2019-03-27T03:26:51.159Z,1025.60
2019-03-27T03:27:53.662Z,1025.59
2019-03-27T03:28:57.948Z,1025.60
2019-03-27T03:30:02.230Z,1025.61
2019-03-27T03:31:06.445Z,1025.58
2019-03-27T03:32:10.671Z,1025.57
2019-03-27T03:33:14.961Z,1025.58
2019-03-27T03:34:19.117Z,1025.61
2019-03-27T03:35:23.393Z,1025.59
2019-03-27T03:36:27.574Z,1025.59
2019-03-27T03:37:31.831Z,1025.55
2019-03-27T03:38:36.176Z,1025.58
2019-03-27T03:39:40.344Z,1025.59
2019-03-27T03:40:44.606Z,1025.57
2019-03-27T03:41:48.926Z,1025.58
2019-03-27T03:42:53.135Z,1025.58
2019-03-27T03:43:57.363Z,1025.59
2019-03-27T03:45:01.550Z,1025.57
2019-03-27T03:46:05.809Z,1025.58
2019-03-27T03:47:10.066Z,1025.60
2019-03-27T03:48:14.325Z,1025.63
2019-03-27T03:49:18.502Z,1025.63
2019-03-27T03:50:22.755Z,1025.68
2019-03-27T03:51:26.912Z,1025.70
2019-03-27T03:52:31.264Z,1025.69
2019-03-27T03:53:35.552Z,1025.71
2019-03-27T03:54:42.848Z,1025.72
2019-03-27T03:55:46.225Z,1025.72
2019-03-27T03:56:50.443Z,1025.72
2019-03-27T03:57:54.751Z,1025.71
2019-03-27T03:58:58.864Z,1025.69
2019-03-27T04:00:03.281Z,1025.66
2019-03-27T04:01:07.480Z,1025.67
2019-03-27T04:02:11.871Z,1025.67
2019-03-27T04:03:16.120Z,1025.70
2019-03-27T04:04:20.446Z,1025.68
2019-03-27T04:05:24.769Z,1025.68
2019-03-27T04:06:28.931Z,1025.67
2019-03-27T04:07:33.247Z,1025.67
2019-03-27T04:08:37.386Z,1025.68
2019-03-27T04:09:41.580Z,1025.67
2019-03-27T04:10:45.790Z,1025.65
2019-03-27T04:11:50.189Z,1025.66
2019-03-27T04:12:54.443Z,1025.66
2019-03-27T04:13:58.716Z,1025.69
2019-03-27T04:15:02.916Z,1025.71
2019-03-27T04:16:07.052Z,1025.69
2019-03-27T04:17:17.258Z,1025.70
2019-03-27T04:18:15.528Z,1025.70
2019-03-27T04:19:19.791Z,1025.68
2019-03-27T04:20:24.058Z,1025.69
2019-03-27T04:21:28.236Z,1025.69
2019-03-27T04:22:32.477Z,1025.70
2019-03-27T04:23:36.719Z,1025.69
2019-03-27T04:24:41.082Z,1025.69
2019-03-27T04:26:08.159Z,1025.68
2019-03-27T04:26:49.488Z,1025.66
2019-03-27T04:27:53.730Z,1025.67
2019-03-27T04:28:57.966Z,1025.68
2019-03-27T04:30:02.130Z,1025.67
2019-03-27T04:31:06.514Z,1025.69
2019-03-27T04:32:10.712Z,1025.69
2019-03-27T04:33:15.036Z,1025.67
2019-03-27T04:34:19.278Z,1025.68
2019-03-27T04:35:23.549Z,1025.69
2019-03-27T04:36:27.810Z,1025.67
2019-03-27T04:37:32.026Z,1025.68
2019-03-27T04:38:36.378Z,1025.67
2019-03-27T04:39:40.520Z,1025.66
2019-03-27T04:40:44.836Z,1025.67
2019-03-27T04:41:49.092Z,1025.64
2019-03-27T04:42:53.443Z,1025.66
2019-03-27T04:43:57.717Z,1025.67
2019-03-27T04:45:01.919Z,1025.68
2019-03-27T04:46:06.082Z,1025.69
2019-03-27T04:47:10.272Z,1025.72
2019-03-27T04:48:14.618Z,1025.73
2019-03-27T04:49:18.734Z,1025.76
2019-03-27T04:50:22.941Z,1025.76
2019-03-27T04:51:27.112Z,1025.79
2019-03-27T04:52:31.481Z,1025.80
2019-03-27T04:53:35.787Z,1025.79
2019-03-27T04:54:40.122Z,1025.81
2019-03-27T04:55:44.223Z,1025.79
2019-03-27T04:56:48.621Z,1025.81
2019-03-27T04:57:52.951Z,1025.83
2019-03-27T04:58:57.259Z,1025.82
2019-03-27T05:00:01.385Z,1025.86
2019-03-27T05:01:05.624Z,1025.87
2019-03-27T05:02:09.878Z,1025.88
2019-03-27T05:03:17.016Z,1025.86
2019-03-27T05:04:20.350Z,1025.87
2019-03-27T05:05:24.574Z,1025.84
2019-03-27T05:06:28.789Z,1025.82
2019-03-27T05:07:33.050Z,1025.82
2019-03-27T05:08:37.324Z,1025.84
2019-03-27T05:09:41.553Z,1025.84
2019-03-27T05:10:45.808Z,1025.85
2019-03-27T05:11:49.911Z,1025.85
2019-03-27T05:12:54.110Z,1025.84
2019-03-27T05:13:58.401Z,1025.84
2019-03-27T05:15:02.650Z,1025.87
2019-03-27T05:16:06.995Z,1025.87
2019-03-27T05:17:11.161Z,1025.90
2019-03-27T05:18:15.328Z,1025.89
2019-03-27T05:19:19.530Z,1025.93
2019-03-27T05:20:23.845Z,1025.91
2019-03-27T05:21:28.063Z,1025.93
2019-03-27T05:22:32.201Z,1025.94
2019-03-27T05:23:36.356Z,1025.97
2019-03-27T05:24:40.777Z,1025.98
2019-03-27T05:25:44.867Z,1025.94
2019-03-27T05:26:49.162Z,1025.93
2019-03-27T05:27:53.392Z,1025.91
2019-03-27T05:28:57.695Z,1025.90
2019-03-27T05:30:01.801Z,1025.92
2019-03-27T05:31:06.092Z,1025.90
2019-03-27T05:32:10.336Z,1025.90
2019-03-27T05:33:14.566Z,1025.90
2019-03-27T05:34:18.694Z,1025.89
2019-03-27T05:35:22.990Z,1025.89
2019-03-27T05:36:27.227Z,1025.91
2019-03-27T05:37:31.551Z,1025.91
2019-03-27T05:38:35.572Z,1025.95
2019-03-27T05:39:39.917Z,1025.95
2019-03-27T05:40:44.181Z,1025.96
2019-03-27T05:41:48.338Z,1025.98
2019-03-27T05:43:00.721Z,1025.99
2019-03-27T05:43:56.864Z,1026.02
2019-03-27T05:45:01.111Z,1026.01
2019-03-27T05:46:05.251Z,1026.03
2019-03-27T05:47:09.342Z,1026.01
2019-03-27T05:48:13.585Z,1026.03
2019-03-27T05:49:17.875Z,1026.04
2019-03-27T05:50:22.170Z,1026.05
2019-03-27T05:51:26.431Z,1026.07
2019-03-27T05:52:30.688Z,1026.06
2019-03-27T05:53:34.937Z,1026.08
2019-03-27T05:54:39.078Z,1026.06
2019-03-27T05:55:43.328Z,1026.05
2019-03-27T05:56:47.598Z,1026.03
2019-03-27T05:57:51.744Z,1026.03
2019-03-27T05:58:56.056Z,1026.04
2019-03-27T06:00:00.502Z,1026.05
2019-03-27T06:01:04.589Z,1026.04
2019-03-27T06:02:08.912Z,1026.06
2019-03-27T06:03:13.106Z,1026.08
2019-03-27T06:04:17.264Z,1026.10
2019-03-27T06:05:21.559Z,1026.11
2019-03-27T06:06:25.867Z,1026.11
2019-03-27T06:07:30.086Z,1026.11
2019-03-27T06:08:34.344Z,1026.11
2019-03-27T06:09:38.580Z,1026.10
2019-03-27T06:10:42.746Z,1026.11
2019-03-27T06:11:47.054Z,1026.12
2019-03-27T06:12:51.207Z,1026.12
2019-03-27T06:13:55.337Z,1026.13
2019-03-27T06:14:59.663Z,1026.12
2019-03-27T06:16:03.871Z,1026.14
2019-03-27T06:17:07.921Z,1026.17
2019-03-27T06:18:13.375Z,1026.15
2019-03-27T06:19:16.556Z,1026.15
2019-03-27T06:20:20.584Z,1026.15
2019-03-27T06:21:24.925Z,1026.17
2019-03-27T06:22:29.216Z,1026.18
2019-03-27T06:23:33.547Z,1026.19
2019-03-27T06:24:37.776Z,1026.22
2019-03-27T06:25:42.113Z,1026.21
2019-03-27T06:26:46.198Z,1026.23
2019-03-27T06:27:50.533Z,1026.24
2019-03-27T06:28:54.693Z,1026.23
2019-03-27T06:29:59.092Z,1026.23
2019-03-27T06:31:03.317Z,1026.22
2019-03-27T06:32:07.566Z,1026.21
2019-03-27T06:33:11.789Z,1026.19
2019-03-27T06:34:16.045Z,1026.20
2019-03-27T06:35:20.431Z,1026.17
2019-03-27T06:36:24.640Z,1026.13
2019-03-27T06:37:28.883Z,1026.12
2019-03-27T06:38:33.052Z,1026.12
2019-03-27T06:39:37.294Z,1026.13
2019-03-27T06:40:41.552Z,1026.11
2019-03-27T06:41:45.833Z,1026.11
2019-03-27T06:42:49.990Z,1026.11
2019-03-27T06:43:54.294Z,1026.13
2019-03-27T06:44:58.563Z,1026.14
2019-03-27T06:46:02.828Z,1026.15
2019-03-27T06:47:07.109Z,1026.15
2019-03-27T06:48:11.391Z,1026.15
2019-03-27T06:49:15.697Z,1026.14
2019-03-27T06:50:19.911Z,1026.12
2019-03-27T06:51:25.286Z,1026.15
2019-03-27T06:52:28.392Z,1026.12
2019-03-27T06:53:32.629Z,1026.13
2019-03-27T06:54:36.811Z,1026.12
2019-03-27T06:55:40.949Z,1026.12
2019-03-27T06:56:45.298Z,1026.10
2019-03-27T06:57:49.465Z,1026.11
2019-03-27T06:58:55.030Z,1026.11
2019-03-27T06:59:57.963Z,1026.11
2019-03-27T07:01:02.314Z,1026.11
2019-03-27T07:02:06.448Z,1026.11
2019-03-27T07:03:10.671Z,1026.09
2019-03-27T07:04:14.889Z,1026.08
2019-03-27T07:05:19.198Z,1026.05
2019-03-27T07:06:23.480Z,1026.08
2019-03-27T07:07:27.771Z,1026.05
2019-03-27T07:08:31.907Z,1026.07
2019-03-27T07:09:36.187Z,1026.04
2019-03-27T07:10:40.326Z,1026.08
2019-03-27T07:11:44.606Z,1026.08
2019-03-27T07:12:48.761Z,1026.10
2019-03-27T07:13:53.103Z,1026.08
2019-03-27T07:14:57.441Z,1026.07
2019-03-27T07:16:01.465Z,1026.09
2019-03-27T07:17:05.815Z,1026.09
2019-03-27T07:18:10.110Z,1026.09
2019-03-27T07:19:14.290Z,1026.08
2019-03-27T07:20:18.640Z,1026.09
2019-03-27T07:21:22.895Z,1026.12
2019-03-27T07:22:27.148Z,1026.09
2019-03-27T07:23:31.401Z,1026.11
2019-03-27T07:24:35.763Z,1026.14
2019-03-27T07:25:39.975Z,1026.16
2019-03-27T07:26:44.337Z,1026.14
2019-03-27T07:27:48.561Z,1026.16
2019-03-27T07:28:52.871Z,1026.19
2019-03-27T07:29:57.148Z,1026.20
2019-03-27T07:31:01.416Z,1026.22
2019-03-27T07:32:05.695Z,1026.22
2019-03-27T07:33:10.002Z,1026.21
2019-03-27T07:34:14.243Z,1026.20
2019-03-27T07:35:18.420Z,1026.17
2019-03-27T07:36:22.745Z,1026.16
2019-03-27T07:37:26.907Z,1026.18
2019-03-27T07:38:31.213Z,1026.15
2019-03-27T07:39:35.490Z,1026.15
2019-03-27T07:40:39.672Z,1026.17
2019-03-27T07:41:43.986Z,1026.20
2019-03-27T07:42:48.270Z,1026.23
2019-03-27T07:43:52.584Z,1026.24
2019-03-27T07:44:56.837Z,1026.25
2019-03-27T07:46:01.121Z,1026.25
2019-03-27T07:47:05.392Z,1026.25
2019-03-27T07:48:09.611Z,1026.28
2019-03-27T07:49:13.792Z,1026.28
2019-03-27T07:50:18.041Z,1026.28
2019-03-27T07:51:22.349Z,1026.28
2019-03-27T07:52:26.612Z,1026.29
2019-03-27T07:53:30.827Z,1026.30
2019-03-27T07:54:35.139Z,1026.30
2019-03-27T07:55:39.375Z,1026.29
2019-03-27T07:56:43.556Z,1026.32
2019-03-27T07:57:47.753Z,1026.32
2019-03-27T07:58:52.112Z,1026.31
2019-03-27T07:59:56.431Z,1026.32
2019-03-27T08:01:00.546Z,1026.33
2019-03-27T08:02:04.792Z,1026.30
2019-03-27T08:03:09.197Z,1026.34
2019-03-27T08:04:14.592Z,1026.34
2019-03-27T08:05:17.571Z,1026.33
2019-03-27T08:06:21.779Z,1026.36
2019-03-27T08:07:27.226Z,1026.35
2019-03-27T08:08:30.380Z,1026.37
2019-03-27T08:09:34.694Z,1026.37
2019-03-27T08:10:38.969Z,1026.38
2019-03-27T08:11:43.209Z,1026.38
2019-03-27T08:12:50.295Z,1026.38
2019-03-27T08:13:53.699Z,1026.36
2019-03-27T08:14:57.978Z,1026.35
2019-03-27T08:16:02.224Z,1026.37
2019-03-27T08:17:06.491Z,1026.37
2019-03-27T08:18:10.652Z,1026.36
2019-03-27T08:19:14.894Z,1026.39
2019-03-27T08:20:19.122Z,1026.38
2019-03-27T08:21:23.497Z,1026.38
2019-03-27T08:22:27.732Z,1026.40
2019-03-27T08:23:31.888Z,1026.40
2019-03-27T08:24:36.219Z,1026.39
2019-03-27T08:25:40.501Z,1026.40
2019-03-27T08:26:44.757Z,1026.40
2019-03-27T08:27:49.037Z,1026.43
2019-03-27T08:28:53.297Z,1026.43
2019-03-27T08:29:57.622Z,1026.43
2019-03-27T08:31:01.868Z,1026.44
2019-03-27T08:32:06.130Z,1026.44
2019-03-27T08:33:10.460Z,1026.46
2019-03-27T08:34:14.671Z,1026.46
2019-03-27T08:35:19.000Z,1026.49
2019-03-27T08:36:23.252Z,1026.49
2019-03-27T08:37:27.512Z,1026.50
2019-03-27T08:38:31.874Z,1026.54
2019-03-27T08:39:36.013Z,1026.51
2019-03-27T08:40:40.341Z,1026.53
2019-03-27T08:41:44.659Z,1026.52
2019-03-27T08:42:48.939Z,1026.52
2019-03-27T08:43:53.176Z,1026.55
2019-03-27T08:44:57.371Z,1026.54
2019-03-27T08:46:01.666Z,1026.51
2019-03-27T08:47:05.958Z,1026.53
2019-03-27T08:48:10.203Z,1026.51
2019-03-27T08:49:21.681Z,1026.55
2019-03-27T08:50:18.710Z,1026.55
2019-03-27T08:51:22.990Z,1026.56
2019-03-27T08:52:27.350Z,1026.56
2019-03-27T08:53:31.558Z,1026.56
2019-03-27T08:54:35.808Z,1026.58
2019-03-27T08:55:40.136Z,1026.58
2019-03-27T08:56:44.360Z,1026.61
2019-03-27T08:57:48.699Z,1026.62
2019-03-27T08:58:52.916Z,1026.62
2019-03-27T08:59:57.170Z,1026.64
2019-03-27T09:01:01.442Z,1026.64
2019-03-27T09:02:05.746Z,1026.63
2019-03-27T09:03:10.011Z,1026.64
2019-03-27T09:04:14.303Z,1026.63
2019-03-27T09:05:18.517Z,1026.63
2019-03-27T09:06:33.078Z,1026.65
2019-03-27T09:07:27.111Z,1026.64
2019-03-27T09:08:31.369Z,1026.63
2019-03-27T09:09:35.646Z,1026.64
2019-03-27T09:10:39.860Z,1026.66
2019-03-27T09:11:44.167Z,1026.66
2019-03-27T09:12:48.430Z,1026.65
2019-03-27T09:13:52.720Z,1026.67
2019-03-27T09:14:57.093Z,1026.67
2019-03-27T09:16:01.361Z,1026.67
2019-03-27T09:17:05.596Z,1026.67
2019-03-27T09:18:09.979Z,1026.65
2019-03-27T09:19:14.221Z,1026.66
2019-03-27T09:20:18.495Z,1026.66
2019-03-27T09:21:22.693Z,1026.65
2019-03-27T09:22:27.024Z,1026.67
2019-03-27T09:23:31.378Z,1026.66
2019-03-27T09:24:35.487Z,1026.67
2019-03-27T09:25:39.638Z,1026.67
2019-03-27T09:26:43.834Z,1026.69
2019-03-27T09:27:48.218Z,1026.68
2019-03-27T09:28:52.491Z,1026.65
2019-03-27T09:29:56.791Z,1026.65
2019-03-27T09:31:00.924Z,1026.63
2019-03-27T09:32:05.273Z,1026.64
2019-03-27T09:33:09.556Z,1026.63
2019-03-27T09:34:13.824Z,1026.63
2019-03-27T09:35:18.100Z,1026.62
2019-03-27T09:36:22.391Z,1026.64
2019-03-27T09:37:26.566Z,1026.63
2019-03-27T09:38:30.762Z,1026.65
2019-03-27T09:39:35.170Z,1026.68
2019-03-27T09:40:39.398Z,1026.68
2019-03-27T09:41:43.714Z,1026.68
2019-03-27T09:42:47.974Z,1026.69
2019-03-27T09:43:52.235Z,1026.69
2019-03-27T09:44:59.516Z,1026.65
2019-03-27T09:46:02.847Z,1026.68
2019-03-27T09:47:07.191Z,1026.65
2019-03-27T09:48:11.410Z,1026.65
2019-03-27T09:49:15.591Z,1026.69
2019-03-27T09:50:19.899Z,1026.68
2019-03-27T09:51:24.374Z,1026.67
2019-03-27T09:52:28.578Z,1026.68
2019-03-27T09:53:32.876Z,1026.67
2019-03-27T09:54:37.148Z,1026.67
2019-03-27T09:55:41.424Z,1026.70
2019-03-27T09:56:45.727Z,1026.70
2019-03-27T09:57:50.000Z,1026.72
2019-03-27T09:58:54.295Z,1026.72
2019-03-27T09:59:58.577Z,1026.74
2019-03-27T10:01:02.943Z,1026.74
2019-03-27T10:02:07.166Z,1026.76
2019-03-27T10:03:11.567Z,1026.73
2019-03-27T10:04:15.817Z,1026.74
2019-03-27T10:05:20.055Z,1026.77
2019-03-27T10:06:24.359Z,1026.78
2019-03-27T10:07:28.563Z,1026.77
2019-03-27T10:08:32.871Z,1026.79
2019-03-27T10:09:37.036Z,1026.76
2019-03-27T10:10:41.383Z,1026.77
2019-03-27T10:11:45.676Z,1026.76
2019-03-27T10:12:50.046Z,1026.77
2019-03-27T10:13:54.359Z,1026.77
2019-03-27T10:14:58.487Z,1026.78
2019-03-27T10:16:02.710Z,1026.78
2019-03-27T10:17:07.161Z,1026.78
2019-03-27T10:18:11.401Z,1026.78
2019-03-27T10:19:15.666Z,1026.78
2019-03-27T10:20:19.954Z,1026.79
2019-03-27T10:21:24.209Z,1026.77
2019-03-27T10:22:28.597Z,1026.77
2019-03-27T10:23:32.766Z,1026.75
2019-03-27T10:24:37.024Z,1026.76
2019-03-27T10:25:41.383Z,1026.74
2019-03-27T10:26:45.621Z,1026.73
2019-03-27T10:27:49.945Z,1026.77
2019-03-27T10:28:54.210Z,1026.76
2019-03-27T10:29:58.492Z,1026.72
2019-03-27T10:31:02.750Z,1026.71
2019-03-27T10:32:07.146Z,1026.70
2019-03-27T10:33:11.387Z,1026.70
2019-03-27T10:34:15.758Z,1026.71
2019-03-27T10:35:19.991Z,1026.68
2019-03-27T10:36:24.251Z,1026.68
2019-03-27T10:37:28.528Z,1026.67
2019-03-27T10:38:32.814Z,1026.68
2019-03-27T10:39:37.206Z,1026.70
2019-03-27T10:40:41.403Z,1026.70
2019-03-27T10:41:45.693Z,1026.71
2019-03-27T10:42:50.020Z,1026.72
2019-03-27T10:43:54.278Z,1026.71
2019-03-27T10:44:58.538Z,1026.72
2019-03-27T10:46:02.905Z,1026.72
2019-03-27T10:47:07.112Z,1026.72
2019-03-27T10:48:11.398Z,1026.73
2019-03-27T10:49:15.654Z,1026.74
2019-03-27T10:50:19.963Z,1026.72
2019-03-27T10:51:24.207Z,1026.72
2019-03-27T10:52:28.381Z,1026.72
2019-03-27T10:53:32.736Z,1026.68
2019-03-27T10:54:37.106Z,1026.68
2019-03-27T10:55:41.343Z,1026.66
2019-03-27T10:56:45.618Z,1026.67
2019-03-27T10:57:49.805Z,1026.64
2019-03-27T10:58:54.139Z,1026.63
2019-03-27T10:59:58.395Z,1026.64
2019-03-27T11:01:02.636Z,1026.65
2019-03-27T11:02:06.905Z,1026.65
2019-03-27T11:03:14.076Z,1026.59
2019-03-27T11:04:17.472Z,1026.57
2019-03-27T11:05:21.616Z,1026.61
2019-03-27T11:06:25.910Z,1026.59
2019-03-27T11:07:33.087Z,1026.57
2019-03-27T11:08:36.368Z,1026.57
2019-03-27T11:09:40.666Z,1026.56
2019-03-27T11:10:44.826Z,1026.55
2019-03-27T11:11:49.064Z,1026.58
2019-03-27T11:12:53.255Z,1026.58
2019-03-27T11:13:57.501Z,1026.59
2019-03-27T11:15:01.710Z,1026.56
2019-03-27T11:16:06.014Z,1026.56
2019-03-27T11:17:10.185Z,1026.58
2019-03-27T11:18:14.385Z,1026.55
2019-03-27T11:19:18.608Z,1026.56
2019-03-27T11:20:30.832Z,1026.59
2019-03-27T11:21:27.077Z,1026.56
2019-03-27T11:22:31.378Z,1026.56
2019-03-27T11:23:35.541Z,1026.58
2019-03-27T11:24:39.846Z,1026.55
2019-03-27T11:25:44.137Z,1026.59
2019-03-27T11:26:48.341Z,1026.61
2019-03-27T11:27:52.593Z,1026.58
2019-03-27T11:28:56.894Z,1026.59
2019-03-27T11:30:01.048Z,1026.63
2019-03-27T11:31:05.270Z,1026.59
2019-03-27T11:32:12.586Z,1026.62
2019-03-27T11:33:16.023Z,1026.60
2019-03-27T11:34:20.330Z,1026.59
2019-03-27T11:35:24.498Z,1026.56
2019-03-27T11:36:28.918Z,1026.55
2019-03-27T11:37:33.258Z,1026.51
2019-03-27T11:38:37.885Z,1026.50
2019-03-27T11:39:41.900Z,1026.45
2019-03-27T11:40:46.252Z,1026.41
2019-03-27T11:41:50.450Z,1026.39
2019-03-27T11:42:54.785Z,1026.36
2019-03-27T11:43:59.090Z,1026.34
2019-03-27T11:45:03.467Z,1026.36
2019-03-27T11:46:07.711Z,1026.38
2019-03-27T11:47:12.100Z,1026.37
2019-03-27T11:48:16.255Z,1026.38
2019-03-27T11:49:20.647Z,1026.39
2019-03-27T11:50:25.002Z,1026.39
2019-03-27T11:51:29.323Z,1026.40
2019-03-27T11:52:33.595Z,1026.42
2019-03-27T11:53:37.959Z,1026.37
2019-03-27T11:54:42.230Z,1026.39
2019-03-27T11:55:46.515Z,1026.40
2019-03-27T11:56:50.855Z,1026.37
2019-03-27T11:57:55.129Z,1026.36
2019-03-27T11:58:59.462Z,1026.38
2019-03-27T12:00:03.753Z,1026.37
2019-03-27T12:01:11.108Z,1026.33
2019-03-27T12:02:14.486Z,1026.36
2019-03-27T12:03:18.749Z,1026.35
2019-03-27T12:04:23.093Z,1026.34
2019-03-27T12:05:27.453Z,1026.32
2019-03-27T12:06:31.687Z,1026.30
2019-03-27T12:07:35.972Z,1026.33
2019-03-27T12:08:40.285Z,1026.33
2019-03-27T12:09:44.556Z,1026.33
2019-03-27T12:10:48.882Z,1026.28
2019-03-27T12:11:53.150Z,1026.29
2019-03-27T12:12:57.307Z,1026.31
2019-03-27T12:14:01.645Z,1026.29
2019-03-27T12:15:05.943Z,1026.29
2019-03-27T12:16:10.230Z,1026.31
2019-03-27T12:17:14.534Z,1026.29
2019-03-27T12:18:18.798Z,1026.30
2019-03-27T12:19:23.118Z,1026.29
2019-03-27T12:20:27.408Z,1026.28
2019-03-27T12:21:31.684Z,1026.29
2019-03-27T12:22:35.962Z,1026.30
2019-03-27T12:23:40.271Z,1026.26
2019-03-27T12:24:44.570Z,1026.26
2019-03-27T12:25:48.873Z,1026.24
2019-03-27T12:26:53.155Z,1026.27
2019-03-27T12:27:57.477Z,1026.24
2019-03-27T12:29:01.700Z,1026.26
2019-03-27T12:30:06.083Z,1026.25
2019-03-27T12:31:10.334Z,1026.26
2019-03-27T12:32:14.584Z,1026.27
2019-03-27T12:33:18.870Z,1026.29
2019-03-27T12:34:23.144Z,1026.30
2019-03-27T12:35:27.323Z,1026.29
2019-03-27T12:36:31.680Z,1026.31
2019-03-27T12:37:35.955Z,1026.27
2019-03-27T12:38:40.070Z,1026.31
2019-03-27T12:39:44.440Z,1026.28
2019-03-27T12:40:48.772Z,1026.32
2019-03-27T12:41:53.194Z,1026.29
2019-03-27T12:42:57.529Z,1026.26
2019-03-27T12:44:02.697Z,1026.25
2019-03-27T12:45:06.190Z,1026.24
2019-03-27T12:46:10.453Z,1026.22
2019-03-27T12:47:14.700Z,1026.21
2019-03-27T12:48:18.989Z,1026.24
2019-03-27T12:49:23.279Z,1026.24
2019-03-27T12:50:27.565Z,1026.25
2019-03-27T12:51:31.835Z,1026.23
2019-03-27T12:52:36.166Z,1026.26
2019-03-27T12:53:40.440Z,1026.28
2019-03-27T12:54:44.810Z,1026.26
2019-03-27T12:55:49.091Z,1026.26
2019-03-27T12:56:53.270Z,1026.25